sensor_id;sensor_type;location;lat;lon;timestamp;P1;durP1;ratioP1;P2;durP2;ratioP2
78718;SDS011;68046;53.334;9.538;2024-03-02T00:00:54;15.20;;;6.75;;
78718;SDS011;68046;53.334;9.538;2024-03-02T00:03:20;14.70;;;7.70;;
78718;SDS011;68046;53.334;9.538;2024-03-02T00:05:48;16.58;;;8.18;;
78718;SDS011;68046;53.334;9.538;2024-03-02T00:08:14;14.25;;;7.20;;
78718;SDS011;68046;53.334;9.538;2024-03-02T00:10:48;15.35;;;7.05;;
78718;SDS011;68046;53.334;9.538;2024-03-02T00:13:15;14.52;;;8.55;;
78718;SDS011;68046;53.334;9.538;2024-03-02T00:15:41;18.33;;;7.82;;
78718;SDS011;68046;53.334;9.538;2024-03-02T00:18:07;14.80;;;8.02;;
78718;SDS011;68046;53.334;9.538;2024-03-02T00:20:35;16.10;;;8.00;;
78718;SDS011;68046;53.334;9.538;2024-03-02T00:23:02;17.13;;;8.13;;
78718;SDS011;68046;53.334;9.538;2024-03-02T00:25:33;15.52;;;8.10;;
78718;SDS011;68046;53.334;9.538;2024-03-02T00:28:02;14.07;;;7.40;;
78718;SDS011;68046;53.334;9.538;2024-03-02T00:30:37;16.15;;;8.40;;
78718;SDS011;68046;53.334;9.538;2024-03-02T00:33:20;13.23;;;7.72;;
78718;SDS011;68046;53.334;9.538;2024-03-02T00:35:47;20.05;;;9.18;;
78718;SDS011;68046;53.334;9.538;2024-03-02T00:38:12;14.20;;;8.60;;
78718;SDS011;68046;53.334;9.538;2024-03-02T00:40:39;14.05;;;8.52;;
78718;SDS011;68046;53.334;9.538;2024-03-02T00:43:04;15.57;;;8.60;;
78718;SDS011;68046;53.334;9.538;2024-03-02T00:45:30;18.15;;;9.23;;
78718;SDS011;68046;53.334;9.538;2024-03-02T00:47:58;17.77;;;7.35;;
78718;SDS011;68046;53.334;9.538;2024-03-02T00:50:23;15.60;;;8.15;;
78718;SDS011;68046;53.334;9.538;2024-03-02T00:52:49;19.70;;;8.55;;
78718;SDS011;68046;53.334;9.538;2024-03-02T00:55:14;18.05;;;8.90;;
78718;SDS011;68046;53.334;9.538;2024-03-02T00:57:40;15.50;;;7.93;;
78718;SDS011;68046;53.334;9.538;2024-03-02T01:00:06;17.23;;;8.10;;
78718;SDS011;68046;53.334;9.538;2024-03-02T01:02:32;20.40;;;8.07;;
78718;SDS011;68046;53.334;9.538;2024-03-02T01:04:59;17.38;;;7.63;;
78718;SDS011;68046;53.334;9.538;2024-03-02T01:07:24;19.30;;;9.10;;
78718;SDS011;68046;53.334;9.538;2024-03-02T01:09:50;20.60;;;8.63;;
78718;SDS011;68046;53.334;9.538;2024-03-02T01:12:15;22.52;;;9.73;;
78718;SDS011;68046;53.334;9.538;2024-03-02T01:14:41;17.65;;;8.18;;
78718;SDS011;68046;53.334;9.538;2024-03-02T01:17:07;18.40;;;8.77;;
78718;SDS011;68046;53.334;9.538;2024-03-02T01:19:32;22.88;;;8.98;;
78718;SDS011;68046;53.334;9.538;2024-03-02T01:21:59;18.00;;;8.90;;
78718;SDS011;68046;53.334;9.538;2024-03-02T01:24:25;17.55;;;8.63;;
78718;SDS011;68046;53.334;9.538;2024-03-02T01:26:50;15.85;;;8.60;;
78718;SDS011;68046;53.334;9.538;2024-03-02T01:29:16;18.80;;;10.07;;
78718;SDS011;68046;53.334;9.538;2024-03-02T01:31:41;19.75;;;8.75;;
78718;SDS011;68046;53.334;9.538;2024-03-02T01:34:07;16.95;;;8.75;;
78718;SDS011;68046;53.334;9.538;2024-03-02T01:36:32;22.40;;;10.23;;
78718;SDS011;68046;53.334;9.538;2024-03-02T01:38:59;18.10;;;9.70;;
78718;SDS011;68046;53.334;9.538;2024-03-02T01:41:25;20.15;;;9.38;;
78718;SDS011;68046;53.334;9.538;2024-03-02T01:43:50;16.13;;;8.10;;
78718;SDS011;68046;53.334;9.538;2024-03-02T01:46:16;16.77;;;8.43;;
78718;SDS011;68046;53.334;9.538;2024-03-02T01:48:41;17.90;;;9.80;;
78718;SDS011;68046;53.334;9.538;2024-03-02T01:51:07;19.95;;;8.85;;
78718;SDS011;68046;53.334;9.538;2024-03-02T01:53:33;17.17;;;9.23;;
78718;SDS011;68046;53.334;9.538;2024-03-02T01:56:00;16.08;;;8.02;;
78718;SDS011;68046;53.334;9.538;2024-03-02T01:58:26;15.70;;;9.38;;
78718;SDS011;68046;53.334;9.538;2024-03-02T02:00:52;19.25;;;8.95;;
78718;SDS011;68046;53.334;9.538;2024-03-02T02:03:17;17.92;;;8.43;;
78718;SDS011;68046;53.334;9.538;2024-03-02T02:05:43;20.00;;;9.45;;
78718;SDS011;68046;53.334;9.538;2024-03-02T02:08:08;17.60;;;9.15;;
78718;SDS011;68046;53.334;9.538;2024-03-02T02:10:34;20.20;;;10.45;;
78718;SDS011;68046;53.334;9.538;2024-03-02T02:13:01;21.35;;;8.80;;
78718;SDS011;68046;53.334;9.538;2024-03-02T02:15:27;17.98;;;10.15;;
78718;SDS011;68046;53.334;9.538;2024-03-02T02:17:53;18.88;;;9.43;;
78718;SDS011;68046;53.334;9.538;2024-03-02T02:20:19;18.83;;;8.63;;
78718;SDS011;68046;53.334;9.538;2024-03-02T02:25:27;18.95;;;9.15;;
78718;SDS011;68046;53.334;9.538;2024-03-02T02:27:53;17.15;;;9.13;;
78718;SDS011;68046;53.334;9.538;2024-03-02T02:30:19;22.58;;;10.10;;
78718;SDS011;68046;53.334;9.538;2024-03-02T02:32:45;19.25;;;9.52;;
78718;SDS011;68046;53.334;9.538;2024-03-02T02:35:11;16.77;;;8.75;;
78718;SDS011;68046;53.334;9.538;2024-03-02T02:37:36;16.73;;;9.35;;
78718;SDS011;68046;53.334;9.538;2024-03-02T02:40:04;17.58;;;9.52;;
78718;SDS011;68046;53.334;9.538;2024-03-02T02:42:30;23.02;;;9.48;;
78718;SDS011;68046;53.334;9.538;2024-03-02T02:44:56;18.00;;;8.85;;
78718;SDS011;68046;53.334;9.538;2024-03-02T02:47:21;16.20;;;9.43;;
78718;SDS011;68046;53.334;9.538;2024-03-02T02:49:47;18.02;;;9.73;;
78718;SDS011;68046;53.334;9.538;2024-03-02T02:52:12;18.42;;;9.15;;
78718;SDS011;68046;53.334;9.538;2024-03-02T02:54:38;17.92;;;9.35;;
78718;SDS011;68046;53.334;9.538;2024-03-02T02:57:04;17.70;;;10.00;;
78718;SDS011;68046;53.334;9.538;2024-03-02T02:59:30;18.40;;;9.88;;
78718;SDS011;68046;53.334;9.538;2024-03-02T03:01:55;17.27;;;9.27;;
78718;SDS011;68046;53.334;9.538;2024-03-02T03:04:21;19.13;;;9.13;;
78718;SDS011;68046;53.334;9.538;2024-03-02T03:06:46;19.73;;;9.88;;
78718;SDS011;68046;53.334;9.538;2024-03-02T03:09:12;17.73;;;9.75;;
78718;SDS011;68046;53.334;9.538;2024-03-02T03:11:38;16.90;;;9.20;;
78718;SDS011;68046;53.334;9.538;2024-03-02T03:14:04;12.98;;;8.45;;
78718;SDS011;68046;53.334;9.538;2024-03-02T03:16:30;16.20;;;9.48;;
78718;SDS011;68046;53.334;9.538;2024-03-02T03:18:56;15.43;;;8.75;;
78718;SDS011;68046;53.334;9.538;2024-03-02T03:21:21;16.90;;;8.85;;
78718;SDS011;68046;53.334;9.538;2024-03-02T03:23:47;17.08;;;8.82;;
78718;SDS011;68046;53.334;9.538;2024-03-02T03:26:12;18.27;;;8.95;;
78718;SDS011;68046;53.334;9.538;2024-03-02T03:28:38;19.25;;;9.20;;
78718;SDS011;68046;53.334;9.538;2024-03-02T03:31:05;16.45;;;8.70;;
78718;SDS011;68046;53.334;9.538;2024-03-02T03:33:30;19.00;;;9.25;;
78718;SDS011;68046;53.334;9.538;2024-03-02T03:35:56;19.45;;;9.82;;
78718;SDS011;68046;53.334;9.538;2024-03-02T03:38:21;15.77;;;9.88;;
78718;SDS011;68046;53.334;9.538;2024-03-02T03:40:47;14.70;;;8.52;;
78718;SDS011;68046;53.334;9.538;2024-03-02T03:43:12;17.08;;;8.93;;
78718;SDS011;68046;53.334;9.538;2024-03-02T03:45:38;17.52;;;9.00;;
78718;SDS011;68046;53.334;9.538;2024-03-02T03:48:05;19.88;;;10.60;;
78718;SDS011;68046;53.334;9.538;2024-03-02T03:50:31;14.90;;;9.13;;
78718;SDS011;68046;53.334;9.538;2024-03-02T03:52:56;16.60;;;9.60;;
78718;SDS011;68046;53.334;9.538;2024-03-02T03:55:22;18.83;;;9.82;;
78718;SDS011;68046;53.334;9.538;2024-03-02T03:57:47;19.58;;;9.40;;
78718;SDS011;68046;53.334;9.538;2024-03-02T04:00:13;17.15;;;9.35;;
78718;SDS011;68046;53.334;9.538;2024-03-02T04:02:39;18.23;;;9.45;;
78718;SDS011;68046;53.334;9.538;2024-03-02T04:05:07;15.35;;;8.02;;
78718;SDS011;68046;53.334;9.538;2024-03-02T04:07:33;21.73;;;9.77;;
78718;SDS011;68046;53.334;9.538;2024-03-02T04:09:58;20.00;;;9.80;;
78718;SDS011;68046;53.334;9.538;2024-03-02T04:12:24;17.38;;;8.55;;
78718;SDS011;68046;53.334;9.538;2024-03-02T04:14:49;20.02;;;9.73;;
78718;SDS011;68046;53.334;9.538;2024-03-02T04:17:15;18.80;;;9.73;;
78718;SDS011;68046;53.334;9.538;2024-03-02T04:19:40;16.92;;;8.73;;
78718;SDS011;68046;53.334;9.538;2024-03-02T04:22:07;16.73;;;9.05;;
78718;SDS011;68046;53.334;9.538;2024-03-02T04:24:32;18.70;;;9.70;;
78718;SDS011;68046;53.334;9.538;2024-03-02T04:26:58;17.40;;;9.25;;
78718;SDS011;68046;53.334;9.538;2024-03-02T04:29:23;19.75;;;9.70;;
78718;SDS011;68046;53.334;9.538;2024-03-02T04:31:49;20.10;;;11.57;;
78718;SDS011;68046;53.334;9.538;2024-03-02T04:34:14;19.70;;;9.75;;
78718;SDS011;68046;53.334;9.538;2024-03-02T04:36:40;19.25;;;10.80;;
78718;SDS011;68046;53.334;9.538;2024-03-02T04:39:07;18.40;;;10.07;;
78718;SDS011;68046;53.334;9.538;2024-03-02T04:41:32;23.05;;;10.75;;
78718;SDS011;68046;53.334;9.538;2024-03-02T04:43:58;21.02;;;9.75;;
78718;SDS011;68046;53.334;9.538;2024-03-02T04:46:23;17.10;;;9.20;;
78718;SDS011;68046;53.334;9.538;2024-03-02T04:48:49;18.98;;;10.05;;
78718;SDS011;68046;53.334;9.538;2024-03-02T04:51:14;22.73;;;10.55;;
78718;SDS011;68046;53.334;9.538;2024-03-02T04:53:40;21.52;;;10.73;;
78718;SDS011;68046;53.334;9.538;2024-03-02T04:56:07;23.38;;;10.68;;
78718;SDS011;68046;53.334;9.538;2024-03-02T04:58:32;18.20;;;9.55;;
78718;SDS011;68046;53.334;9.538;2024-03-02T05:00:58;21.15;;;10.25;;
78718;SDS011;68046;53.334;9.538;2024-03-02T05:03:23;20.58;;;10.65;;
78718;SDS011;68046;53.334;9.538;2024-03-02T05:05:49;22.70;;;10.93;;
78718;SDS011;68046;53.334;9.538;2024-03-02T05:08:14;23.15;;;12.00;;
78718;SDS011;68046;53.334;9.538;2024-03-02T05:10:40;22.25;;;10.15;;
78718;SDS011;68046;53.334;9.538;2024-03-02T05:13:07;20.77;;;10.32;;
78718;SDS011;68046;53.334;9.538;2024-03-02T05:15:32;18.65;;;10.00;;
78718;SDS011;68046;53.334;9.538;2024-03-02T05:17:58;23.33;;;10.32;;
78718;SDS011;68046;53.334;9.538;2024-03-02T05:20:23;23.48;;;10.55;;
78718;SDS011;68046;53.334;9.538;2024-03-02T05:22:49;21.88;;;9.32;;
78718;SDS011;68046;53.334;9.538;2024-03-02T05:25:14;25.10;;;11.80;;
78718;SDS011;68046;53.334;9.538;2024-03-02T05:27:40;27.85;;;10.68;;
78718;SDS011;68046;53.334;9.538;2024-03-02T05:30:08;21.50;;;10.70;;
78718;SDS011;68046;53.334;9.538;2024-03-02T05:32:34;19.02;;;9.40;;
78718;SDS011;68046;53.334;9.538;2024-03-02T05:34:59;27.25;;;12.38;;
78718;SDS011;68046;53.334;9.538;2024-03-02T05:37:25;23.60;;;11.15;;
78718;SDS011;68046;53.334;9.538;2024-03-02T05:39:50;22.45;;;10.90;;
78718;SDS011;68046;53.334;9.538;2024-03-02T05:42:16;20.83;;;10.07;;
78718;SDS011;68046;53.334;9.538;2024-03-02T05:44:41;21.33;;;9.98;;
78718;SDS011;68046;53.334;9.538;2024-03-02T05:47:08;27.80;;;12.55;;
78718;SDS011;68046;53.334;9.538;2024-03-02T05:49:34;23.38;;;11.57;;
78718;SDS011;68046;53.334;9.538;2024-03-02T05:51:59;22.30;;;10.20;;
78718;SDS011;68046;53.334;9.538;2024-03-02T05:54:24;22.58;;;11.57;;
78718;SDS011;68046;53.334;9.538;2024-03-02T05:56:50;24.98;;;11.00;;
78718;SDS011;68046;53.334;9.538;2024-03-02T05:59:15;23.75;;;11.13;;
78718;SDS011;68046;53.334;9.538;2024-03-02T06:01:41;22.83;;;12.02;;
78718;SDS011;68046;53.334;9.538;2024-03-02T06:04:09;27.50;;;11.90;;
78718;SDS011;68046;53.334;9.538;2024-03-02T06:06:35;24.48;;;11.82;;
78718;SDS011;68046;53.334;9.538;2024-03-02T06:09:00;25.52;;;11.73;;
78718;SDS011;68046;53.334;9.538;2024-03-02T06:11:26;26.70;;;11.43;;
78718;SDS011;68046;53.334;9.538;2024-03-02T06:13:51;25.75;;;11.60;;
78718;SDS011;68046;53.334;9.538;2024-03-02T06:16:17;26.30;;;12.45;;
78718;SDS011;68046;53.334;9.538;2024-03-02T06:18:42;25.00;;;12.57;;
78718;SDS011;68046;53.334;9.538;2024-03-02T06:21:09;32.97;;;13.43;;
78718;SDS011;68046;53.334;9.538;2024-03-02T06:23:34;28.10;;;11.70;;
78718;SDS011;68046;53.334;9.538;2024-03-02T06:26:00;24.40;;;11.80;;
78718;SDS011;68046;53.334;9.538;2024-03-02T06:28:26;22.75;;;11.50;;
78718;SDS011;68046;53.334;9.538;2024-03-02T06:30:51;28.10;;;13.05;;
78718;SDS011;68046;53.334;9.538;2024-03-02T06:33:17;23.48;;;11.15;;
78718;SDS011;68046;53.334;9.538;2024-03-02T06:35:42;23.10;;;11.45;;
78718;SDS011;68046;53.334;9.538;2024-03-02T06:38:09;25.88;;;12.13;;
78718;SDS011;68046;53.334;9.538;2024-03-02T06:40:34;26.00;;;11.80;;
78718;SDS011;68046;53.334;9.538;2024-03-02T06:43:00;31.63;;;13.07;;
78718;SDS011;68046;53.334;9.538;2024-03-02T06:45:25;23.65;;;11.57;;
78718;SDS011;68046;53.334;9.538;2024-03-02T06:47:51;23.50;;;12.20;;
78718;SDS011;68046;53.334;9.538;2024-03-02T06:50:16;30.90;;;12.95;;
78718;SDS011;68046;53.334;9.538;2024-03-02T06:52:42;22.40;;;11.15;;
78718;SDS011;68046;53.334;9.538;2024-03-02T06:55:09;22.73;;;11.07;;
78718;SDS011;68046;53.334;9.538;2024-03-02T06:57:34;21.50;;;10.88;;
78718;SDS011;68046;53.334;9.538;2024-03-02T07:00:00;27.42;;;13.13;;
78718;SDS011;68046;53.334;9.538;2024-03-02T07:02:25;29.98;;;12.48;;
78718;SDS011;68046;53.334;9.538;2024-03-02T07:04:51;23.85;;;11.07;;
78718;SDS011;68046;53.334;9.538;2024-03-02T07:07:16;26.05;;;11.93;;
78718;SDS011;68046;53.334;9.538;2024-03-02T07:09:42;26.85;;;11.40;;
78718;SDS011;68046;53.334;9.538;2024-03-02T07:12:09;25.08;;;11.73;;
78718;SDS011;68046;53.334;9.538;2024-03-02T07:14:34;25.90;;;11.77;;
78718;SDS011;68046;53.334;9.538;2024-03-02T07:17:00;22.73;;;11.35;;
78718;SDS011;68046;53.334;9.538;2024-03-02T07:19:25;26.52;;;12.05;;
78718;SDS011;68046;53.334;9.538;2024-03-02T07:21:51;26.52;;;11.80;;
78718;SDS011;68046;53.334;9.538;2024-03-02T07:24:16;32.03;;;12.48;;
78718;SDS011;68046;53.334;9.538;2024-03-02T07:26:42;24.38;;;11.07;;
78718;SDS011;68046;53.334;9.538;2024-03-02T07:29:08;28.70;;;11.30;;
78718;SDS011;68046;53.334;9.538;2024-03-02T07:31:34;24.88;;;11.93;;
78718;SDS011;68046;53.334;9.538;2024-03-02T07:34:00;27.38;;;12.48;;
78718;SDS011;68046;53.334;9.538;2024-03-02T07:36:25;22.73;;;10.85;;
78718;SDS011;68046;53.334;9.538;2024-03-02T07:38:51;24.77;;;12.25;;
78718;SDS011;68046;53.334;9.538;2024-03-02T07:41:16;24.48;;;12.35;;
78718;SDS011;68046;53.334;9.538;2024-03-02T07:43:42;24.98;;;11.20;;
78718;SDS011;68046;53.334;9.538;2024-03-02T07:46:09;23.88;;;10.48;;
78718;SDS011;68046;53.334;9.538;2024-03-02T07:48:34;23.95;;;10.93;;
78718;SDS011;68046;53.334;9.538;2024-03-02T07:51:00;24.98;;;12.20;;
78718;SDS011;68046;53.334;9.538;2024-03-02T07:53:25;26.40;;;11.80;;
78718;SDS011;68046;53.334;9.538;2024-03-02T07:55:51;24.23;;;11.20;;
78718;SDS011;68046;53.334;9.538;2024-03-02T07:58:16;22.13;;;10.32;;
78718;SDS011;68046;53.334;9.538;2024-03-02T08:00:42;24.02;;;10.80;;
78718;SDS011;68046;53.334;9.538;2024-03-02T08:03:09;26.42;;;11.68;;
78718;SDS011;68046;53.334;9.538;2024-03-02T08:05:34;24.02;;;11.73;;
78718;SDS011;68046;53.334;9.538;2024-03-02T08:08:00;26.65;;;11.20;;
78718;SDS011;68046;53.334;9.538;2024-03-02T08:10:25;28.73;;;13.77;;
78718;SDS011;68046;53.334;9.538;2024-03-02T08:12:51;24.65;;;11.25;;
78718;SDS011;68046;53.334;9.538;2024-03-02T08:15:16;24.10;;;12.48;;
78718;SDS011;68046;53.334;9.538;2024-03-02T08:17:42;27.13;;;13.13;;
78718;SDS011;68046;53.334;9.538;2024-03-02T08:20:10;25.88;;;13.23;;
78718;SDS011;68046;53.334;9.538;2024-03-02T08:22:36;22.55;;;11.63;;
78718;SDS011;68046;53.334;9.538;2024-03-02T08:25:02;26.10;;;12.18;;
78718;SDS011;68046;53.334;9.538;2024-03-02T08:27:28;23.25;;;11.50;;
78718;SDS011;68046;53.334;9.538;2024-03-02T08:29:54;27.02;;;12.23;;
78718;SDS011;68046;53.334;9.538;2024-03-02T08:32:19;23.77;;;11.80;;
78718;SDS011;68046;53.334;9.538;2024-03-02T08:34:45;22.98;;;11.45;;
78718;SDS011;68046;53.334;9.538;2024-03-02T08:37:11;22.17;;;11.40;;
78718;SDS011;68046;53.334;9.538;2024-03-02T08:39:37;21.42;;;11.80;;
78718;SDS011;68046;53.334;9.538;2024-03-02T08:42:03;22.48;;;11.52;;
78718;SDS011;68046;53.334;9.538;2024-03-02T08:44:29;22.33;;;11.77;;
78718;SDS011;68046;53.334;9.538;2024-03-02T08:46:54;23.27;;;11.10;;
78718;SDS011;68046;53.334;9.538;2024-03-02T08:49:20;23.00;;;10.35;;
78718;SDS011;68046;53.334;9.538;2024-03-02T08:51:45;26.98;;;10.65;;
78718;SDS011;68046;53.334;9.538;2024-03-02T08:54:12;20.30;;;10.10;;
78718;SDS011;68046;53.334;9.538;2024-03-02T08:56:38;23.02;;;10.85;;
78718;SDS011;68046;53.334;9.538;2024-03-02T08:59:03;25.88;;;11.25;;
78718;SDS011;68046;53.334;9.538;2024-03-02T09:01:29;21.55;;;10.55;;
78718;SDS011;68046;53.334;9.538;2024-03-02T09:03:54;26.65;;;11.52;;
78718;SDS011;68046;53.334;9.538;2024-03-02T09:06:20;26.38;;;11.07;;
78718;SDS011;68046;53.334;9.538;2024-03-02T09:08:45;25.50;;;11.63;;
78718;SDS011;68046;53.334;9.538;2024-03-02T09:11:13;22.15;;;12.02;;
78718;SDS011;68046;53.334;9.538;2024-03-02T09:13:39;20.88;;;9.95;;
78718;SDS011;68046;53.334;9.538;2024-03-02T09:16:05;21.88;;;10.02;;
78718;SDS011;68046;53.334;9.538;2024-03-02T09:18:31;24.10;;;11.18;;
78718;SDS011;68046;53.334;9.538;2024-03-02T09:20:57;23.20;;;9.65;;
78718;SDS011;68046;53.334;9.538;2024-03-02T09:23:22;23.13;;;10.65;;
78718;SDS011;68046;53.334;9.538;2024-03-02T09:25:48;24.98;;;10.43;;
78718;SDS011;68046;53.334;9.538;2024-03-02T09:28:16;21.85;;;10.20;;
78718;SDS011;68046;53.334;9.538;2024-03-02T09:30:41;19.45;;;10.45;;
78718;SDS011;68046;53.334;9.538;2024-03-02T09:33:07;21.40;;;9.73;;
78718;SDS011;68046;53.334;9.538;2024-03-02T09:35:32;27.52;;;11.52;;
78718;SDS011;68046;53.334;9.538;2024-03-02T09:37:58;27.90;;;11.15;;
78718;SDS011;68046;53.334;9.538;2024-03-02T09:40:23;23.25;;;10.57;;
78718;SDS011;68046;53.334;9.538;2024-03-02T09:42:49;17.48;;;9.48;;
78718;SDS011;68046;53.334;9.538;2024-03-02T09:45:16;21.83;;;9.40;;
78718;SDS011;68046;53.334;9.538;2024-03-02T09:47:42;18.30;;;10.10;;
78718;SDS011;68046;53.334;9.538;2024-03-02T09:50:09;17.23;;;9.00;;
78718;SDS011;68046;53.334;9.538;2024-03-02T09:52:35;17.15;;;9.32;;
78718;SDS011;68046;53.334;9.538;2024-03-02T09:55:02;23.20;;;9.90;;
78718;SDS011;68046;53.334;9.538;2024-03-02T09:57:28;21.13;;;9.43;;
78718;SDS011;68046;53.334;9.538;2024-03-02T09:59:54;23.58;;;9.70;;
78718;SDS011;68046;53.334;9.538;2024-03-02T10:02:20;22.90;;;9.75;;
78718;SDS011;68046;53.334;9.538;2024-03-02T10:04:48;16.35;;;9.43;;
78718;SDS011;68046;53.334;9.538;2024-03-02T10:07:14;17.60;;;9.35;;
78718;SDS011;68046;53.334;9.538;2024-03-02T10:09:40;17.98;;;9.18;;
78718;SDS011;68046;53.334;9.538;2024-03-02T10:12:07;21.63;;;9.15;;
78718;SDS011;68046;53.334;9.538;2024-03-02T10:14:34;19.27;;;9.95;;
78718;SDS011;68046;53.334;9.538;2024-03-02T10:17:03;18.13;;;9.18;;
78718;SDS011;68046;53.334;9.538;2024-03-02T10:19:31;16.92;;;8.07;;
78718;SDS011;68046;53.334;9.538;2024-03-02T10:21:57;18.30;;;9.80;;
78718;SDS011;68046;53.334;9.538;2024-03-02T10:24:23;16.75;;;8.20;;
78718;SDS011;68046;53.334;9.538;2024-03-02T10:26:49;17.17;;;8.60;;
78718;SDS011;68046;53.334;9.538;2024-03-02T10:29:15;16.27;;;8.13;;
78718;SDS011;68046;53.334;9.538;2024-03-02T10:31:41;17.17;;;7.70;;
78718;SDS011;68046;53.334;9.538;2024-03-02T10:34:09;17.05;;;8.07;;
78718;SDS011;68046;53.334;9.538;2024-03-02T10:36:37;17.33;;;8.43;;
78718;SDS011;68046;53.334;9.538;2024-03-02T10:39:06;15.80;;;8.55;;
78718;SDS011;68046;53.334;9.538;2024-03-02T10:41:33;18.25;;;8.25;;
78718;SDS011;68046;53.334;9.538;2024-03-02T10:44:00;15.88;;;8.18;;
78718;SDS011;68046;53.334;9.538;2024-03-02T10:46:27;13.13;;;7.18;;
78718;SDS011;68046;53.334;9.538;2024-03-02T10:48:54;16.05;;;7.57;;
78718;SDS011;68046;53.334;9.538;2024-03-02T10:51:19;15.70;;;7.20;;
78718;SDS011;68046;53.334;9.538;2024-03-02T10:53:46;12.00;;;7.20;;
78718;SDS011;68046;53.334;9.538;2024-03-02T10:56:12;15.50;;;6.95;;
78718;SDS011;68046;53.334;9.538;2024-03-02T10:58:44;15.10;;;7.60;;
78718;SDS011;68046;53.334;9.538;2024-03-02T11:01:11;14.43;;;7.40;;
78718;SDS011;68046;53.334;9.538;2024-03-02T11:03:38;15.73;;;7.85;;
78718;SDS011;68046;53.334;9.538;2024-03-02T11:06:06;14.63;;;8.23;;
78718;SDS011;68046;53.334;9.538;2024-03-02T11:08:33;14.43;;;7.57;;
78718;SDS011;68046;53.334;9.538;2024-03-02T11:11:03;13.35;;;6.55;;
78718;SDS011;68046;53.334;9.538;2024-03-02T11:13:36;13.40;;;6.85;;
78718;SDS011;68046;53.334;9.538;2024-03-02T11:16:03;13.20;;;6.40;;
78718;SDS011;68046;53.334;9.538;2024-03-02T11:18:33;15.23;;;6.88;;
78718;SDS011;68046;53.334;9.538;2024-03-02T11:21:00;15.02;;;6.93;;
78718;SDS011;68046;53.334;9.538;2024-03-02T11:23:31;13.25;;;6.65;;
78718;SDS011;68046;53.334;9.538;2024-03-02T11:26:06;12.95;;;7.70;;
78718;SDS011;68046;53.334;9.538;2024-03-02T11:28:42;12.85;;;6.88;;
78718;SDS011;68046;53.334;9.538;2024-03-02T11:31:07;14.93;;;7.60;;
78718;SDS011;68046;53.334;9.538;2024-03-02T11:33:33;18.25;;;7.68;;
78718;SDS011;68046;53.334;9.538;2024-03-02T11:35:58;12.88;;;7.05;;
78718;SDS011;68046;53.334;9.538;2024-03-02T11:38:29;16.55;;;7.45;;
78718;SDS011;68046;53.334;9.538;2024-03-02T11:40:56;16.95;;;7.93;;
78718;SDS011;68046;53.334;9.538;2024-03-02T11:43:23;13.45;;;6.88;;
78718;SDS011;68046;53.334;9.538;2024-03-02T11:45:56;13.50;;;6.47;;
78718;SDS011;68046;53.334;9.538;2024-03-02T11:48:22;10.55;;;5.30;;
78718;SDS011;68046;53.334;9.538;2024-03-02T11:50:50;13.57;;;6.55;;
78718;SDS011;68046;53.334;9.538;2024-03-02T11:53:15;12.82;;;5.88;;
78718;SDS011;68046;53.334;9.538;2024-03-02T11:55:42;13.20;;;5.93;;
78718;SDS011;68046;53.334;9.538;2024-03-02T11:58:07;12.02;;;6.32;;
78718;SDS011;68046;53.334;9.538;2024-03-02T12:00:34;15.43;;;6.70;;
78718;SDS011;68046;53.334;9.538;2024-03-02T12:03:00;19.88;;;7.85;;
78718;SDS011;68046;53.334;9.538;2024-03-02T12:05:27;17.30;;;6.90;;
78718;SDS011;68046;53.334;9.538;2024-03-02T12:07:55;17.90;;;6.95;;
78718;SDS011;68046;53.334;9.538;2024-03-02T12:10:21;21.10;;;7.30;;
78718;SDS011;68046;53.334;9.538;2024-03-02T12:12:47;13.70;;;6.72;;
78718;SDS011;68046;53.334;9.538;2024-03-02T12:15:12;20.83;;;7.53;;
78718;SDS011;68046;53.334;9.538;2024-03-02T12:17:39;16.55;;;7.70;;
78718;SDS011;68046;53.334;9.538;2024-03-02T12:20:05;19.02;;;8.82;;
78718;SDS011;68046;53.334;9.538;2024-03-02T12:22:31;12.82;;;6.95;;
78718;SDS011;68046;53.334;9.538;2024-03-02T12:24:57;13.32;;;7.05;;
78718;SDS011;68046;53.334;9.538;2024-03-02T12:27:23;14.98;;;6.72;;
78718;SDS011;68046;53.334;9.538;2024-03-02T12:29:48;14.35;;;6.70;;
78718;SDS011;68046;53.334;9.538;2024-03-02T12:32:14;12.10;;;6.90;;
78718;SDS011;68046;53.334;9.538;2024-03-02T12:34:41;13.45;;;6.38;;
78718;SDS011;68046;53.334;9.538;2024-03-02T12:37:06;10.98;;;6.13;;
78718;SDS011;68046;53.334;9.538;2024-03-02T12:39:32;10.57;;;5.68;;
78718;SDS011;68046;53.334;9.538;2024-03-02T12:41:57;11.70;;;6.47;;
78718;SDS011;68046;53.334;9.538;2024-03-02T12:44:23;15.52;;;6.47;;
78718;SDS011;68046;53.334;9.538;2024-03-02T12:46:48;12.88;;;6.55;;
78718;SDS011;68046;53.334;9.538;2024-03-02T12:49:14;13.25;;;6.28;;
78718;SDS011;68046;53.334;9.538;2024-03-02T12:51:42;14.57;;;6.13;;
78718;SDS011;68046;53.334;9.538;2024-03-02T12:54:08;11.23;;;5.90;;
78718;SDS011;68046;53.334;9.538;2024-03-02T12:56:34;17.67;;;7.00;;
78718;SDS011;68046;53.334;9.538;2024-03-02T12:59:00;14.95;;;7.80;;
78718;SDS011;68046;53.334;9.538;2024-03-02T13:01:26;13.88;;;6.57;;
78718;SDS011;68046;53.334;9.538;2024-03-02T13:03:52;12.07;;;6.85;;
78718;SDS011;68046;53.334;9.538;2024-03-02T13:06:18;13.07;;;6.25;;
78718;SDS011;68046;53.334;9.538;2024-03-02T13:08:46;16.38;;;6.50;;
78718;SDS011;68046;53.334;9.538;2024-03-02T13:11:12;13.13;;;7.13;;
78718;SDS011;68046;53.334;9.538;2024-03-02T13:13:38;9.98;;;6.07;;
78718;SDS011;68046;53.334;9.538;2024-03-02T13:16:04;15.55;;;6.88;;
78718;SDS011;68046;53.334;9.538;2024-03-02T13:18:33;12.93;;;6.00;;
78718;SDS011;68046;53.334;9.538;2024-03-02T13:20:59;12.73;;;5.72;;
78718;SDS011;68046;53.334;9.538;2024-03-02T13:23:24;12.80;;;6.55;;
78718;SDS011;68046;53.334;9.538;2024-03-02T13:25:51;12.02;;;5.82;;
78718;SDS011;68046;53.334;9.538;2024-03-02T13:28:16;11.43;;;5.97;;
78718;SDS011;68046;53.334;9.538;2024-03-02T13:30:42;12.93;;;6.07;;
78718;SDS011;68046;53.334;9.538;2024-03-02T13:33:08;12.90;;;5.90;;
78718;SDS011;68046;53.334;9.538;2024-03-02T13:35:33;11.50;;;6.18;;
78718;SDS011;68046;53.334;9.538;2024-03-02T13:37:59;13.00;;;6.57;;
78718;SDS011;68046;53.334;9.538;2024-03-02T13:40:24;11.63;;;5.78;;
78718;SDS011;68046;53.334;9.538;2024-03-02T13:42:51;12.88;;;6.57;;
78718;SDS011;68046;53.334;9.538;2024-03-02T13:45:17;13.27;;;5.93;;
78718;SDS011;68046;53.334;9.538;2024-03-02T13:47:42;11.88;;;5.75;;
78718;SDS011;68046;53.334;9.538;2024-03-02T13:50:08;11.50;;;6.38;;
78718;SDS011;68046;53.334;9.538;2024-03-02T13:52:34;14.38;;;6.18;;
78718;SDS011;68046;53.334;9.538;2024-03-02T13:54:59;11.85;;;6.43;;
78718;SDS011;68046;53.334;9.538;2024-03-02T13:57:25;10.32;;;5.60;;
78718;SDS011;68046;53.334;9.538;2024-03-02T13:59:52;10.95;;;5.50;;
78718;SDS011;68046;53.334;9.538;2024-03-02T14:02:17;11.27;;;5.75;;
78718;SDS011;68046;53.334;9.538;2024-03-02T14:04:43;12.10;;;5.55;;
78718;SDS011;68046;53.334;9.538;2024-03-02T14:07:09;10.63;;;5.13;;
78718;SDS011;68046;53.334;9.538;2024-03-02T14:09:34;11.15;;;5.43;;
78718;SDS011;68046;53.334;9.538;2024-03-02T14:12:00;11.07;;;6.05;;
78718;SDS011;68046;53.334;9.538;2024-03-02T14:14:25;8.82;;;4.72;;
78718;SDS011;68046;53.334;9.538;2024-03-02T14:16:53;9.88;;;5.20;;
78718;SDS011;68046;53.334;9.538;2024-03-02T14:19:19;11.13;;;4.95;;
78718;SDS011;68046;53.334;9.538;2024-03-02T14:21:44;13.75;;;6.82;;
78718;SDS011;68046;53.334;9.538;2024-03-02T14:24:10;9.57;;;5.85;;
78718;SDS011;68046;53.334;9.538;2024-03-02T14:26:36;11.18;;;6.05;;